createdAt,value
2023-03-12T00:00:44.836Z,2.17
2023-03-12T00:03:48.555Z,2.63
2023-03-12T00:06:51.441Z,2.27
2023-03-12T00:09:55.636Z,2.60
2023-03-12T00:12:58.628Z,2.40
2023-03-12T00:16:06.109Z,2.37
2023-03-12T00:19:09.087Z,2.33
2023-03-12T00:22:12.201Z,2.10
2023-03-12T00:25:17.733Z,2.30
2023-03-12T00:28:20.577Z,2.83
2023-03-12T00:31:26.121Z,2.90
2023-03-12T00:34:28.992Z,2.70
2023-03-12T00:37:33.113Z,2.70
2023-03-12T00:40:39.288Z,2.90
2023-03-12T00:43:42.189Z,2.80
2023-03-12T00:46:45.077Z,2.73
2023-03-12T00:49:47.893Z,2.40
2023-03-12T00:52:51.253Z,2.73
2023-03-12T00:55:55.504Z,2.63
2023-03-12T00:58:58.850Z,2.73
2023-03-12T01:02:01.592Z,2.73
2023-03-12T01:05:05.160Z,2.70
2023-03-12T01:08:08.602Z,2.73
2023-03-12T01:11:16.434Z,2.50
2023-03-12T01:14:19.232Z,2.90
2023-03-12T01:17:22.333Z,2.10
2023-03-12T01:20:25.254Z,2.73
2023-03-12T01:23:28.095Z,3.03
2023-03-12T01:26:32.180Z,2.70
2023-03-12T01:29:35.043Z,2.07
2023-03-12T01:32:38.019Z,2.43
2023-03-12T01:35:42.468Z,2.87
2023-03-12T01:38:45.462Z,2.33
2023-03-12T01:41:49.819Z,3.00
2023-03-12T01:44:54.552Z,2.47
2023-03-12T01:47:57.409Z,2.37
2023-03-12T01:51:01.391Z,2.47
2023-03-12T01:54:08.724Z,2.70
2023-03-12T01:57:16.990Z,3.17
2023-03-12T02:00:22.861Z,3.00
2023-03-12T02:03:25.898Z,3.30
2023-03-12T02:06:36.157Z,3.30
2023-03-12T02:09:43.075Z,3.13
2023-03-12T02:12:47.312Z,3.33
2023-03-12T02:15:50.228Z,3.20
2023-03-12T02:18:55.636Z,3.23
2023-03-12T02:21:59.640Z,2.90
2023-03-12T02:25:07.865Z,3.40
2023-03-12T02:28:15.851Z,3.17
2023-03-12T02:31:22.209Z,3.07
2023-03-12T02:34:25.067Z,3.10
2023-03-12T02:37:28.056Z,2.77
2023-03-12T02:40:36.680Z,3.13
2023-03-12T02:43:43.455Z,3.53
2023-03-12T02:46:49.600Z,3.60
2023-03-12T02:49:53.684Z,3.67
2023-03-12T02:52:56.561Z,2.80
2023-03-12T02:55:59.399Z,3.37
2023-03-12T02:59:04.546Z,3.07
2023-03-12T03:02:09.604Z,3.00
2023-03-12T03:05:13.177Z,3.23
2023-03-12T03:08:16.052Z,3.13
2023-03-12T03:11:19.121Z,3.07
2023-03-12T03:14:23.421Z,3.30
2023-03-12T03:17:26.592Z,3.63
2023-03-12T03:20:29.500Z,3.17
2023-03-12T03:23:32.858Z,3.20
2023-03-12T03:26:35.629Z,3.63
2023-03-12T03:29:40.216Z,4.57
2023-03-12T03:32:43.542Z,3.97
2023-03-12T03:35:46.761Z,3.47
2023-03-12T03:38:50.550Z,3.97
2023-03-12T03:41:53.482Z,4.03
2023-03-12T03:44:57.679Z,3.50
2023-03-12T03:48:00.667Z,3.70
2023-03-12T03:51:05.099Z,4.20
2023-03-12T03:54:08.040Z,3.77
2023-03-12T03:57:10.990Z,3.73
2023-03-12T04:00:17.929Z,3.43
2023-03-12T04:03:20.749Z,4.03
2023-03-12T04:06:24.238Z,3.30
2023-03-12T04:09:27.120Z,3.77
2023-03-12T04:12:30.020Z,3.70
2023-03-12T04:15:34.420Z,3.37
2023-03-12T04:18:37.475Z,3.60
2023-03-12T04:21:40.537Z,4.27
2023-03-12T04:24:43.357Z,3.73
2023-03-12T04:27:46.261Z,3.53
2023-03-12T04:30:59.681Z,3.43
2023-03-12T04:34:02.724Z,3.53
2023-03-12T04:37:05.560Z,3.63
2023-03-12T04:40:09.948Z,4.03
2023-03-12T04:43:12.893Z,3.67
2023-03-12T04:46:17.162Z,4.10
2023-03-12T04:49:20.013Z,3.13
2023-03-12T04:52:22.778Z,3.73
2023-03-12T04:55:25.628Z,3.63
2023-03-12T04:58:28.768Z,3.83
2023-03-12T05:01:35.164Z,3.57
2023-03-12T05:04:38.264Z,3.50
2023-03-12T05:07:41.137Z,3.13
2023-03-12T05:10:45.897Z,3.37
2023-03-12T05:13:49.200Z,4.13
2023-03-12T05:16:53.377Z,3.47
2023-03-12T05:19:56.379Z,3.60
2023-03-12T05:22:59.135Z,2.87
2023-03-12T05:26:01.996Z,3.50
2023-03-12T05:29:06.390Z,3.67
2023-03-12T05:32:10.715Z,3.13
2023-03-12T05:35:13.723Z,3.57
2023-03-12T05:38:16.586Z,2.83
2023-03-12T05:41:21.437Z,3.83
2023-03-12T05:44:25.168Z,3.70
2023-03-12T05:47:30.089Z,3.80
2023-03-12T05:50:33.101Z,3.20
2023-03-12T05:53:36.029Z,3.07
2023-03-12T05:56:39.074Z,3.20
2023-03-12T05:59:41.872Z,3.53
2023-03-12T06:02:46.193Z,3.00
2023-03-12T06:05:49.017Z,3.20
2023-03-12T06:08:52.590Z,3.00
2023-03-12T06:11:55.516Z,3.00
2023-03-12T06:14:58.844Z,3.10
2023-03-12T06:18:03.087Z,3.13
2023-03-12T06:21:10.896Z,3.00
2023-03-12T06:24:13.765Z,3.20
2023-03-12T06:27:17.457Z,3.50
2023-03-12T06:30:20.303Z,3.17
2023-03-12T06:33:24.457Z,3.17
2023-03-12T06:36:27.195Z,3.33
2023-03-12T06:39:30.362Z,2.70
2023-03-12T06:42:33.215Z,3.10
2023-03-12T06:45:35.984Z,3.03
2023-03-12T06:48:41.581Z,3.33
2023-03-12T06:51:44.890Z,3.43
2023-03-12T06:54:47.709Z,3.70
2023-03-12T06:57:50.552Z,3.13
2023-03-12T07:00:54.363Z,3.20
2023-03-12T07:03:58.500Z,2.73
2023-03-12T07:07:01.198Z,3.53
2023-03-12T07:10:04.066Z,3.00
2023-03-12T07:13:07.130Z,3.17
2023-03-12T07:16:10.456Z,3.43
2023-03-12T07:19:14.965Z,3.07
2023-03-12T07:22:18.027Z,3.50
2023-03-12T07:25:20.971Z,3.57
2023-03-12T07:28:24.151Z,3.67
2023-03-12T07:31:27.077Z,3.17
2023-03-12T07:34:31.482Z,4.13
2023-03-12T07:37:34.381Z,3.10
2023-03-12T07:40:37.839Z,2.77
2023-03-12T07:43:40.735Z,2.70
2023-03-12T07:46:44.498Z,2.60
2023-03-12T07:49:49.384Z,3.07
2023-03-12T07:52:52.520Z,2.53
2023-03-12T07:55:56.243Z,3.00
2023-03-12T07:58:59.162Z,2.80
2023-03-12T08:02:02.368Z,3.30
2023-03-12T08:05:07.210Z,2.90
2023-03-12T08:08:10.190Z,2.73
2023-03-12T08:11:12.987Z,3.30
2023-03-12T08:14:15.936Z,2.57
2023-03-12T08:17:18.797Z,3.13
2023-03-12T08:20:23.089Z,2.93
2023-03-12T08:23:26.686Z,3.33
2023-03-12T08:26:29.540Z,3.80
2023-03-12T08:29:33.550Z,3.13
2023-03-12T08:32:36.566Z,3.43
2023-03-12T08:35:40.934Z,3.20
2023-03-12T08:38:43.920Z,3.53
2023-03-12T08:41:46.822Z,2.97
2023-03-12T08:44:49.930Z,3.33
2023-03-12T08:47:52.813Z,3.40
2023-03-12T08:50:58.004Z,3.50
2023-03-12T08:54:00.717Z,4.10
2023-03-12T08:57:03.762Z,3.87
2023-03-12T09:00:12.488Z,3.37
2023-03-12T09:03:15.355Z,3.70
2023-03-12T09:06:19.618Z,4.07
2023-03-12T09:09:22.444Z,3.57
2023-03-12T09:12:25.847Z,3.07
2023-03-12T09:15:28.880Z,3.53
2023-03-12T09:18:31.906Z,2.77
2023-03-12T09:21:36.087Z,3.17
2023-03-12T09:40:48.451Z,3.03
2023-03-12T09:43:56.572Z,3.13
2023-03-12T09:47:03.447Z,3.07
2023-03-12T09:50:17.955Z,2.97
2023-03-12T09:53:29.194Z,3.10
2023-03-12T09:56:32.713Z,3.50
2023-03-12T09:59:36.952Z,3.53
2023-03-12T10:03:09.759Z,3.30
2023-03-12T10:06:15.812Z,3.00
2023-03-12T10:09:56.653Z,3.00
2023-03-12T10:13:23.446Z,3.30
2023-03-12T10:16:40.854Z,2.40
2023-03-12T10:20:07.686Z,3.30
2023-03-12T10:23:14.562Z,2.93
2023-03-12T10:26:25.701Z,2.67
2023-03-12T10:29:33.081Z,2.93
2023-03-12T10:32:41.678Z,2.87
2023-03-12T10:35:44.530Z,3.13
2023-03-12T10:38:48.627Z,1.47
2023-03-12T10:41:53.105Z,1.70
2023-03-12T10:45:00.224Z,1.50
2023-03-12T10:48:04.911Z,1.30
2023-03-12T10:51:09.921Z,1.60
2023-03-12T10:54:22.813Z,0.90
2023-03-12T10:57:40.653Z,1.20
2023-03-12T11:00:57.782Z,1.40
2023-03-12T11:04:10.972Z,1.30
2023-03-12T11:07:26.137Z,1.20
2023-03-12T11:10:41.815Z,1.10
2023-03-12T11:13:45.990Z,0.90
2023-03-12T11:16:49.542Z,0.90
2023-03-12T11:19:52.776Z,0.90
2023-03-12T11:22:55.524Z,0.80
2023-03-12T11:26:01.893Z,0.80
2023-03-12T11:29:13.096Z,0.60
2023-03-12T11:32:19.154Z,0.80
2023-03-12T11:35:40.171Z,0.90
2023-03-12T11:38:49.017Z,0.60
2023-03-12T11:42:09.779Z,0.60
2023-03-12T11:45:27.737Z,0.70
2023-03-12T11:48:39.057Z,0.60
2023-03-12T11:51:52.987Z,0.60
2023-03-12T11:55:22.374Z,0.63
2023-03-12T11:58:40.665Z,0.87
2023-03-12T12:01:59.185Z,0.40
2023-03-12T12:05:20.305Z,0.87
2023-03-12T12:08:40.580Z,1.17
2023-03-12T12:11:56.217Z,0.80
2023-03-12T12:15:10.263Z,0.97
2023-03-12T12:18:34.421Z,1.00
2023-03-12T12:21:52.208Z,0.80
2023-03-12T12:25:17.976Z,0.80
2023-03-12T12:28:32.793Z,0.70
2023-03-12T12:31:41.432Z,0.80
2023-03-12T12:35:08.949Z,1.20
2023-03-12T12:38:15.591Z,0.70
2023-03-12T12:41:21.630Z,0.80
2023-03-12T12:44:28.582Z,0.53
2023-03-12T12:47:41.529Z,0.88
2023-03-12T12:50:47.282Z,0.82
2023-03-12T12:53:57.285Z,0.55
2023-03-12T12:57:06.306Z,0.68
2023-03-12T13:00:24.004Z,1.08
2023-03-12T13:03:29.252Z,1.00
2023-03-12T13:06:55.198Z,1.13
2023-03-12T13:09:59.551Z,0.50
2023-03-12T13:13:10.266Z,0.90
2023-03-12T13:16:29.132Z,0.83
2023-03-12T13:19:31.847Z,0.70
2023-03-12T13:23:00.426Z,0.80
2023-03-12T13:26:07.734Z,1.00
2023-03-12T13:29:20.924Z,0.87
2023-03-12T13:33:01.607Z,0.90
2023-03-12T13:36:12.625Z,0.90
2023-03-12T13:39:31.945Z,0.73
2023-03-12T13:42:41.732Z,0.90
2023-03-12T13:46:00.692Z,1.00
2023-03-12T13:49:10.498Z,1.13
2023-03-12T13:52:26.352Z,1.50
2023-03-12T13:55:31.867Z,1.23
2023-03-12T13:58:43.203Z,0.80
2023-03-12T14:01:49.958Z,0.83
2023-03-12T14:04:53.096Z,0.90
2023-03-12T14:08:04.045Z,1.43
2023-03-12T14:11:23.682Z,1.17
2023-03-12T14:15:00.399Z,0.73
2023-03-12T14:18:10.488Z,0.80
2023-03-12T14:21:17.106Z,1.13
2023-03-12T14:24:26.409Z,0.77
2023-03-12T14:27:33.440Z,0.77
2023-03-12T14:30:48.763Z,1.20
2023-03-12T14:33:57.030Z,1.20
2023-03-12T14:37:05.775Z,0.75
2023-03-12T14:40:19.712Z,1.15
2023-03-12T14:43:27.529Z,6.93
2023-03-12T14:46:30.766Z,1.02
2023-03-12T14:49:33.538Z,0.63
2023-03-12T14:52:36.176Z,0.65
2023-03-12T14:55:38.792Z,1.83
2023-03-12T14:58:46.588Z,0.82
2023-03-12T15:01:49.897Z,0.98
2023-03-12T15:04:56.347Z,0.98
2023-03-12T15:08:03.302Z,1.15
2023-03-12T15:11:05.994Z,1.17
2023-03-12T15:14:15.140Z,0.75
2023-03-12T15:17:19.555Z,0.80
2023-03-12T15:20:24.411Z,0.60
2023-03-12T15:23:30.457Z,0.88
2023-03-12T15:26:36.322Z,0.85
2023-03-12T15:29:42.598Z,1.23
2023-03-12T15:33:04.799Z,1.33
2023-03-12T15:36:21.272Z,1.00
2023-03-12T15:39:27.293Z,0.80
2023-03-12T15:42:30.407Z,0.88
2023-03-12T15:45:39.250Z,1.17
2023-03-12T15:48:48.046Z,0.73
2023-03-12T15:52:03.372Z,0.93
2023-03-12T15:55:23.035Z,0.70
2023-03-12T15:58:28.400Z,0.47
2023-03-12T16:01:45.424Z,1.05
2023-03-12T16:04:48.085Z,1.17
2023-03-12T16:07:50.765Z,0.82
2023-03-12T16:10:55.418Z,0.88
2023-03-12T16:14:04.104Z,1.17
2023-03-12T16:17:14.366Z,1.03
2023-03-12T16:20:18.419Z,1.10
2023-03-12T16:23:21.086Z,0.93
2023-03-12T16:26:23.719Z,2.50
2023-03-12T16:29:31.636Z,1.57
2023-03-12T16:32:36.780Z,1.42
2023-03-12T16:35:39.457Z,1.47
2023-03-12T16:38:42.413Z,1.03
2023-03-12T16:41:45.138Z,1.30
2023-03-12T16:44:48.164Z,1.30
2023-03-12T16:47:56.054Z,1.30
2023-03-12T16:50:59.005Z,1.88
2023-03-12T16:54:10.420Z,1.40
2023-03-12T16:57:23.299Z,1.20
2023-03-12T17:00:29.004Z,1.37
2023-03-12T17:03:37.113Z,1.27
2023-03-12T17:06:41.295Z,2.30
2023-03-12T17:09:43.912Z,3.40
2023-03-12T17:12:48.351Z,2.13
2023-03-12T17:15:51.616Z,4.23
2023-03-12T17:18:55.863Z,4.33
2023-03-12T17:21:58.536Z,2.70
2023-03-12T17:25:01.140Z,2.57
2023-03-12T17:28:03.901Z,4.10
2023-03-12T17:31:06.980Z,5.27
2023-03-12T17:34:11.038Z,5.47
2023-03-12T17:37:13.794Z,5.67
2023-03-12T17:40:16.959Z,7.13
2023-03-12T17:43:19.904Z,3.67
2023-03-12T17:46:22.701Z,7.20
2023-03-12T17:49:26.812Z,3.60
2023-03-12T17:52:31.760Z,2.10
2023-03-12T17:55:35.323Z,3.10
2023-03-12T17:58:38.021Z,2.60
2023-03-12T18:01:40.708Z,3.23
2023-03-12T18:04:45.018Z,2.80
2023-03-12T18:07:49.092Z,3.53
2023-03-12T18:10:51.744Z,3.83
2023-03-12T18:13:54.568Z,3.67
2023-03-12T18:16:57.268Z,3.30
2023-03-12T18:20:01.314Z,2.53
2023-03-12T18:23:03.937Z,2.10
2023-03-12T18:26:06.735Z,1.60
2023-03-12T18:29:09.376Z,2.00
2023-03-12T18:32:12.172Z,1.70
2023-03-12T18:35:16.436Z,2.00
2023-03-12T18:38:19.510Z,4.97
2023-03-12T18:41:28.615Z,3.07
2023-03-12T18:44:31.446Z,2.00
2023-03-12T18:47:34.851Z,2.77
2023-03-12T18:50:38.982Z,8.63
2023-03-12T18:53:41.654Z,4.87
2023-03-12T18:56:44.293Z,3.43
2023-03-12T18:59:47.132Z,2.87
2023-03-12T19:02:49.832Z,2.30
2023-03-12T19:06:03.264Z,2.10
2023-03-12T19:09:05.944Z,2.60
2023-03-12T19:12:08.956Z,1.87
2023-03-12T19:15:12.929Z,2.27
2023-03-12T19:18:15.641Z,2.47
2023-03-12T19:21:19.636Z,2.40
2023-03-12T19:24:22.404Z,2.13
2023-03-12T19:27:25.192Z,2.53
2023-03-12T19:30:30.602Z,2.13
2023-03-12T19:33:33.861Z,1.67
2023-03-12T19:36:37.787Z,1.80
2023-03-12T19:39:40.478Z,2.00
2023-03-12T19:42:43.112Z,3.43
2023-03-12T19:45:46.226Z,3.07
2023-03-12T19:48:49.891Z,2.10
2023-03-12T19:51:53.835Z,3.00
2023-03-12T19:55:04.347Z,16.17
2023-03-12T19:58:08.299Z,10.53
2023-03-12T20:01:11.060Z,6.37
2023-03-12T20:04:13.728Z,3.63
2023-03-12T20:07:18.470Z,2.97
2023-03-12T20:10:21.606Z,1.97
2023-03-12T20:13:24.258Z,2.50
2023-03-12T20:16:26.973Z,2.00
2023-03-12T20:19:29.952Z,2.00
2023-03-12T20:22:36.185Z,2.67
2023-03-12T20:25:40.749Z,2.50
2023-03-12T20:28:43.356Z,1.50
2023-03-12T20:31:46.082Z,2.67
2023-03-12T20:34:48.814Z,2.20
2023-03-12T20:37:52.905Z,1.60
2023-03-12T20:40:55.622Z,1.83
2023-03-12T20:43:58.840Z,2.00
2023-03-12T20:47:01.760Z,1.60
2023-03-12T20:50:04.858Z,1.50
2023-03-12T20:53:08.897Z,1.27
2023-03-12T20:56:12.479Z,1.60
2023-03-12T20:59:15.395Z,1.63
2023-03-12T21:02:18.458Z,1.50
2023-03-12T21:05:23.796Z,1.53
2023-03-12T21:08:29.470Z,1.70
2023-03-12T21:11:32.267Z,1.40
2023-03-12T21:14:34.939Z,1.50
2023-03-12T21:17:39.705Z,1.60
2023-03-12T21:20:42.910Z,1.50
2023-03-12T21:23:47.256Z,1.23
2023-03-12T21:26:49.929Z,1.10
2023-03-12T21:29:53.247Z,1.17
2023-03-12T21:32:56.189Z,1.20
2023-03-12T21:35:58.856Z,1.23
2023-03-12T21:39:03.089Z,1.87
2023-03-12T21:42:05.942Z,1.93
2023-03-12T21:45:10.718Z,1.70
2023-03-12T21:48:13.318Z,2.30
2023-03-12T21:51:18.253Z,2.20
2023-03-12T21:54:22.252Z,1.60
2023-03-12T21:57:24.886Z,1.40
2023-03-12T22:00:27.490Z,2.13
2023-03-12T22:03:30.218Z,1.30
2023-03-12T22:06:33.294Z,1.40
2023-03-12T22:09:37.226Z,1.50
2023-03-12T22:12:40.273Z,1.70
2023-03-12T22:15:43.077Z,1.57
2023-03-12T22:18:47.142Z,1.93
2023-03-12T22:21:49.770Z,1.50
2023-03-12T22:24:53.690Z,1.43
2023-03-12T22:27:56.324Z,1.83
2023-03-12T22:30:59.612Z,1.40
2023-03-12T22:34:02.220Z,1.20
2023-03-12T22:37:04.952Z,1.30
2023-03-12T22:40:10.632Z,1.00
2023-03-12T22:43:13.254Z,1.60
2023-03-12T22:46:16.854Z,1.37
2023-03-12T22:49:19.633Z,1.73
2023-03-12T22:52:22.311Z,1.37
2023-03-12T22:55:26.447Z,1.33
2023-03-12T22:58:29.505Z,1.73
2023-03-12T23:01:32.136Z,1.43
2023-03-12T23:04:35.158Z,1.70
2023-03-12T23:07:38.127Z,1.53
2023-03-12T23:10:42.342Z,1.80
2023-03-12T23:13:46.688Z,1.53
2023-03-12T23:16:49.332Z,1.60
2023-03-12T23:19:52.049Z,1.70
2023-03-12T23:22:54.727Z,1.20
2023-03-12T23:26:00.376Z,1.47
2023-03-12T23:29:03.328Z,1.90
2023-03-12T23:32:06.839Z,1.37
2023-03-12T23:35:09.971Z,1.30
2023-03-12T23:38:12.591Z,1.60
2023-03-12T23:41:18.620Z,1.17
2023-03-12T23:44:21.231Z,1.70
2023-03-12T23:47:23.939Z,1.33
2023-03-12T23:50:26.620Z,1.43
2023-03-12T23:53:29.235Z,1.40
2023-03-12T23:56:35.518Z,1.27
2023-03-12T23:59:38.182Z,1.30
